createdAt,value
2022-12-07T00:01:35.096Z,1.00
2022-12-07T00:04:06.724Z,1.20
2022-12-07T00:06:36.794Z,1.00
2022-12-07T00:09:04.848Z,1.23
2022-12-07T00:11:32.140Z,1.10
2022-12-07T00:14:01.449Z,1.35
2022-12-07T00:16:31.096Z,1.00
2022-12-07T00:18:58.297Z,1.23
2022-12-07T00:21:30.703Z,1.02
2022-12-07T00:23:57.894Z,1.30
2022-12-07T00:26:29.879Z,1.25
2022-12-07T00:28:59.177Z,1.27
2022-12-07T00:31:27.924Z,1.20
2022-12-07T00:33:54.723Z,1.27
2022-12-07T00:36:26.933Z,1.40
2022-12-07T00:38:55.815Z,1.38
2022-12-07T00:41:25.116Z,1.30
2022-12-07T00:43:52.391Z,1.35
2022-12-07T00:46:20.835Z,1.30
2022-12-07T00:48:48.778Z,1.27
2022-12-07T00:51:17.377Z,1.40
2022-12-07T00:53:44.296Z,1.35
2022-12-07T00:56:19.600Z,1.30
2022-12-07T00:58:54.563Z,1.48
2022-12-07T01:01:21.734Z,1.67
2022-12-07T01:03:48.625Z,1.45
2022-12-07T01:06:17.764Z,1.20
2022-12-07T01:08:45.083Z,1.38
2022-12-07T01:11:15.609Z,1.30
2022-12-07T01:13:42.701Z,1.00
2022-12-07T01:16:12.174Z,1.40
2022-12-07T01:18:39.644Z,1.42
2022-12-07T01:21:18.613Z,1.35
2022-12-07T01:23:45.730Z,1.27
2022-12-07T01:26:15.291Z,1.42
2022-12-07T01:28:42.117Z,1.50
2022-12-07T01:31:18.247Z,1.40
2022-12-07T01:36:21.307Z,1.40
2022-12-07T01:38:52.358Z,1.60
2022-12-07T01:41:20.100Z,1.25
2022-12-07T01:44:20.858Z,2.03
2022-12-07T01:46:49.200Z,1.60
2022-12-07T01:49:34.549Z,1.60
2022-12-07T01:52:24.829Z,1.60
2022-12-07T01:54:58.287Z,1.40
2022-12-07T01:57:25.413Z,1.38
2022-12-07T01:59:53.970Z,1.20
2022-12-07T02:02:37.170Z,1.52
2022-12-07T02:05:06.417Z,1.63
2022-12-07T02:07:37.174Z,1.40
2022-12-07T02:10:26.263Z,1.40
2022-12-07T02:13:11.090Z,1.52
2022-12-07T02:15:43.871Z,1.33
2022-12-07T02:18:13.588Z,1.45
2022-12-07T02:21:13.529Z,1.50
2022-12-07T02:23:49.208Z,1.30
2022-12-07T02:26:47.427Z,1.55
2022-12-07T02:29:33.961Z,1.63
2022-12-07T02:32:44.286Z,1.58
2022-12-07T02:35:29.819Z,1.70
2022-12-07T02:38:18.506Z,1.67
2022-12-07T02:40:54.098Z,1.50
2022-12-07T02:43:47.082Z,1.50
2022-12-07T02:46:18.331Z,1.58
2022-12-07T02:48:46.331Z,1.67
2022-12-07T02:51:13.133Z,1.60
2022-12-07T02:53:42.526Z,1.33
2022-12-07T02:56:43.988Z,1.48
2022-12-07T03:00:08.177Z,1.55
2022-12-07T03:03:01.316Z,1.60
2022-12-07T03:05:40.201Z,1.38
2022-12-07T03:08:07.025Z,1.40
2022-12-07T03:10:54.626Z,1.38
2022-12-07T03:13:33.247Z,1.55
2022-12-07T03:16:24.400Z,1.40
2022-12-07T03:19:04.098Z,1.70
2022-12-07T03:21:44.218Z,1.40
2022-12-07T03:24:21.868Z,1.40
2022-12-07T03:26:52.798Z,1.40
2022-12-07T03:29:41.293Z,1.50
2022-12-07T03:32:21.773Z,1.55
2022-12-07T03:34:57.974Z,1.63
2022-12-07T03:40:16.004Z,1.60
2022-12-07T03:42:43.365Z,1.60
2022-12-07T03:45:11.081Z,1.65
2022-12-07T03:48:10.081Z,1.60
2022-12-07T03:50:49.518Z,1.55
2022-12-07T03:53:23.286Z,1.33
2022-12-07T03:55:50.975Z,1.55
2022-12-07T03:58:20.094Z,1.50
2022-12-07T04:00:47.172Z,1.20
2022-12-07T04:03:14.144Z,1.45
2022-12-07T04:05:41.886Z,1.50
2022-12-07T04:08:08.805Z,1.20
2022-12-07T04:10:35.675Z,1.30
2022-12-07T04:13:02.392Z,1.70
2022-12-07T04:15:29.487Z,1.77
2022-12-07T04:17:56.298Z,1.42
2022-12-07T04:20:23.517Z,1.50
2022-12-07T04:22:50.318Z,1.55
2022-12-07T04:25:17.167Z,1.70
2022-12-07T04:27:43.883Z,1.30
2022-12-07T04:30:10.982Z,1.30
2022-12-07T04:32:37.945Z,1.30
2022-12-07T04:35:05.558Z,1.45
2022-12-07T04:37:32.302Z,1.40
2022-12-07T04:39:59.250Z,1.50
2022-12-07T04:42:26.231Z,1.40
2022-12-07T04:44:53.017Z,1.35
2022-12-07T04:47:19.820Z,1.73
2022-12-07T04:49:46.596Z,1.63
2022-12-07T04:52:13.382Z,1.60
2022-12-07T04:54:40.194Z,1.38
2022-12-07T04:57:06.921Z,1.77
2022-12-07T04:59:33.651Z,1.60
2022-12-07T05:02:00.477Z,1.42
2022-12-07T05:04:27.315Z,1.60
2022-12-07T05:06:54.071Z,1.63
2022-12-07T05:09:20.921Z,1.70
2022-12-07T05:11:47.682Z,1.38
2022-12-07T05:14:22.076Z,1.70
2022-12-07T05:16:51.390Z,1.50
2022-12-07T05:19:19.760Z,1.50
2022-12-07T05:21:47.357Z,1.40
2022-12-07T05:24:16.086Z,1.60
2022-12-07T05:26:43.742Z,1.58
2022-12-07T05:29:15.689Z,1.40
2022-12-07T05:31:43.086Z,1.88
2022-12-07T05:34:10.592Z,1.73
2022-12-07T05:36:37.637Z,1.85
2022-12-07T05:39:04.754Z,1.58
2022-12-07T05:41:50.044Z,2.00
2022-12-07T05:44:16.850Z,1.77
2022-12-07T05:46:43.714Z,1.80
2022-12-07T05:49:10.579Z,1.60
2022-12-07T05:51:37.438Z,1.92
2022-12-07T05:54:04.281Z,2.20
2022-12-07T05:56:31.036Z,1.63
2022-12-07T05:59:16.365Z,1.95
2022-12-07T06:01:43.187Z,1.90
2022-12-07T06:04:10.107Z,1.70
2022-12-07T06:06:36.960Z,2.25
2022-12-07T06:09:04.524Z,1.92
2022-12-07T06:11:49.755Z,2.00
2022-12-07T06:14:16.484Z,2.20
2022-12-07T06:16:43.347Z,2.00
2022-12-07T06:19:10.406Z,2.08
2022-12-07T06:21:37.113Z,2.40
2022-12-07T06:24:04.309Z,2.30
2022-12-07T06:26:31.121Z,2.00
2022-12-07T06:28:58.032Z,1.90
2022-12-07T06:31:24.947Z,2.00
2022-12-07T06:33:52.064Z,2.20
2022-12-07T06:36:23.995Z,2.50
2022-12-07T06:38:54.482Z,2.30
2022-12-07T06:41:21.757Z,2.10
2022-12-07T06:43:54.191Z,2.42
2022-12-07T06:46:22.889Z,2.03
2022-12-07T06:48:49.792Z,2.38
2022-12-07T06:51:16.863Z,2.47
2022-12-07T06:53:43.828Z,2.50
2022-12-07T06:56:10.893Z,2.40
2022-12-07T06:58:37.954Z,2.22
2022-12-07T07:01:11.284Z,2.65
2022-12-07T07:03:38.573Z,2.60
2022-12-07T07:06:06.930Z,2.85
2022-12-07T07:08:34.348Z,2.42
2022-12-07T07:11:01.851Z,2.15
2022-12-07T07:13:29.017Z,2.45
2022-12-07T07:15:56.152Z,2.40
2022-12-07T07:18:23.206Z,2.08
2022-12-07T07:20:54.593Z,2.30
2022-12-07T07:23:22.318Z,2.13
2022-12-07T07:25:49.125Z,2.00
2022-12-07T07:28:17.075Z,2.50
2022-12-07T07:30:43.955Z,2.20
2022-12-07T07:33:11.326Z,2.50
2022-12-07T07:35:38.579Z,2.20
2022-12-07T07:38:05.316Z,2.22
2022-12-07T07:40:32.189Z,2.38
2022-12-07T07:42:59.321Z,2.55
2022-12-07T07:45:27.983Z,2.38
2022-12-07T07:47:55.047Z,2.30
2022-12-07T07:50:22.263Z,2.15
2022-12-07T07:52:49.734Z,2.63
2022-12-07T07:55:20.002Z,2.38
2022-12-07T07:57:52.815Z,2.22
2022-12-07T08:00:22.079Z,2.40
2022-12-07T08:02:48.863Z,2.60
2022-12-07T08:05:15.811Z,2.33
2022-12-07T08:07:42.810Z,2.30
2022-12-07T08:10:12.737Z,2.38
2022-12-07T08:13:02.379Z,2.42
2022-12-07T08:15:31.624Z,2.30
2022-12-07T08:17:59.104Z,2.42
2022-12-07T08:20:26.214Z,2.47
2022-12-07T08:22:53.112Z,2.38
2022-12-07T08:25:20.155Z,2.10
2022-12-07T08:27:47.000Z,2.47
2022-12-07T08:30:14.088Z,2.50
2022-12-07T08:32:40.867Z,2.67
2022-12-07T08:35:08.927Z,2.70
2022-12-07T08:37:36.785Z,2.75
2022-12-07T08:40:05.049Z,2.60
2022-12-07T08:42:38.614Z,2.38
2022-12-07T08:45:08.221Z,2.55
2022-12-07T08:47:47.362Z,2.03
2022-12-07T08:50:15.115Z,2.83
2022-12-07T08:52:43.235Z,2.50
2022-12-07T08:55:12.661Z,3.00
2022-12-07T08:57:40.146Z,2.58
2022-12-07T09:00:08.391Z,2.63
2022-12-07T09:02:35.210Z,2.42
2022-12-07T09:05:01.982Z,2.58
2022-12-07T09:07:32.989Z,2.83
2022-12-07T09:10:00.122Z,2.85
2022-12-07T09:12:27.118Z,2.47
2022-12-07T09:14:53.858Z,2.45
2022-12-07T09:17:20.678Z,2.40
2022-12-07T09:19:47.398Z,2.70
2022-12-07T09:22:14.231Z,2.33
2022-12-07T09:24:41.070Z,2.50
2022-12-07T09:27:07.889Z,2.30
2022-12-07T09:29:34.741Z,2.30
2022-12-07T09:32:04.391Z,2.38
2022-12-07T09:34:33.840Z,2.40
2022-12-07T09:37:03.870Z,2.97
2022-12-07T09:39:31.242Z,2.40
2022-12-07T09:41:59.689Z,2.47
2022-12-07T09:44:28.258Z,2.50
2022-12-07T09:46:55.637Z,2.30
2022-12-07T09:49:25.274Z,2.72
2022-12-07T09:52:18.129Z,2.55
2022-12-07T09:54:49.227Z,2.20
2022-12-07T09:57:16.845Z,3.10
2022-12-07T09:59:44.276Z,2.30
2022-12-07T10:02:40.506Z,2.55
2022-12-07T10:05:12.882Z,2.38
2022-12-07T10:07:39.771Z,2.50
2022-12-07T10:10:21.473Z,2.20
2022-12-07T10:13:06.894Z,2.10
2022-12-07T10:15:48.567Z,2.13
2022-12-07T10:18:20.691Z,2.30
2022-12-07T10:20:49.412Z,2.20
2022-12-07T10:23:18.502Z,2.20
2022-12-07T10:25:46.273Z,2.50
2022-12-07T10:28:19.023Z,2.22
2022-12-07T10:30:55.004Z,2.08
2022-12-07T10:33:37.977Z,2.17
2022-12-07T10:36:27.316Z,2.35
2022-12-07T10:39:01.954Z,2.50
2022-12-07T10:41:29.117Z,3.55
2022-12-07T10:43:58.035Z,2.72
2022-12-07T10:46:47.607Z,2.60
2022-12-07T10:49:26.747Z,2.60
2022-12-07T10:52:06.310Z,2.30
2022-12-07T10:54:48.497Z,2.30
2022-12-07T10:57:46.478Z,2.38
2022-12-07T11:00:24.755Z,2.10
2022-12-07T11:03:24.074Z,2.50
2022-12-07T11:06:20.831Z,2.40
2022-12-07T11:09:02.969Z,2.00
2022-12-07T11:11:43.119Z,1.95
2022-12-07T11:14:13.630Z,2.20
2022-12-07T11:17:07.541Z,1.77
2022-12-07T11:19:53.060Z,1.95
2022-12-07T11:22:24.139Z,2.25
2022-12-07T11:25:12.500Z,1.90
2022-12-07T11:28:03.834Z,2.25
2022-12-07T11:30:58.449Z,1.90
2022-12-07T11:34:08.812Z,2.00
2022-12-07T11:36:40.496Z,2.10
2022-12-07T11:39:22.256Z,1.90
2022-12-07T11:41:55.969Z,2.15
2022-12-07T11:44:40.861Z,2.05
2022-12-07T11:47:13.749Z,1.73
2022-12-07T11:49:58.007Z,2.20
2022-12-07T11:52:50.110Z,2.20
2022-12-07T11:55:27.151Z,2.00
2022-12-07T11:58:04.394Z,1.83
2022-12-07T12:00:31.403Z,1.85
2022-12-07T12:03:21.604Z,2.30
2022-12-07T12:05:50.768Z,1.73
2022-12-07T12:11:48.513Z,1.80
2022-12-07T12:14:48.454Z,1.63
2022-12-07T12:17:51.957Z,1.83
2022-12-07T12:20:21.559Z,1.80
2022-12-07T12:23:06.820Z,1.77
2022-12-07T12:25:47.513Z,1.60
2022-12-07T12:28:29.356Z,1.60
2022-12-07T12:31:10.709Z,1.58
2022-12-07T12:33:39.169Z,1.50
2022-12-07T12:36:27.172Z,1.38
2022-12-07T12:38:59.855Z,1.50
2022-12-07T12:41:54.351Z,1.38
2022-12-07T12:44:23.894Z,1.60
2022-12-07T12:47:00.558Z,1.70
2022-12-07T12:49:27.274Z,1.40
2022-12-07T12:52:00.964Z,1.70
2022-12-07T12:54:37.166Z,1.48
2022-12-07T12:59:43.379Z,1.33
2022-12-07T13:04:54.775Z,2.90
2022-12-07T13:07:47.746Z,2.70
2022-12-07T13:10:33.495Z,2.45
2022-12-07T13:13:13.430Z,2.80
2022-12-07T13:15:47.040Z,2.55
2022-12-07T13:18:29.156Z,2.40
2022-12-07T13:21:08.335Z,2.22
2022-12-07T13:23:47.215Z,2.20
2022-12-07T13:26:20.884Z,1.80
2022-12-07T13:28:50.777Z,2.13
2022-12-07T13:31:42.443Z,1.58
2022-12-07T13:34:29.525Z,1.75
2022-12-07T13:36:56.874Z,1.75
2022-12-07T13:39:28.645Z,1.80
2022-12-07T13:42:01.038Z,2.10
2022-12-07T13:44:29.195Z,1.95
2022-12-07T13:47:13.784Z,1.90
2022-12-07T13:49:53.551Z,2.45
2022-12-07T13:52:22.573Z,1.50
2022-12-07T13:55:00.218Z,1.88
2022-12-07T13:57:29.864Z,1.85
2022-12-07T13:59:57.401Z,1.80
2022-12-07T14:02:35.077Z,1.67
2022-12-07T14:05:17.413Z,1.80
2022-12-07T14:07:59.038Z,1.52
2022-12-07T14:10:31.422Z,1.50
2022-12-07T14:12:59.716Z,1.60
2022-12-07T14:15:35.234Z,1.50
2022-12-07T14:18:05.451Z,1.90
2022-12-07T14:20:33.830Z,1.70
2022-12-07T14:23:09.817Z,1.70
2022-12-07T14:25:51.163Z,1.60
2022-12-07T14:28:33.282Z,1.90
2022-12-07T14:31:01.341Z,1.90
2022-12-07T14:33:28.953Z,1.95
2022-12-07T14:35:56.755Z,2.17
2022-12-07T14:38:23.664Z,2.10
2022-12-07T14:40:50.484Z,2.42
2022-12-07T14:43:19.137Z,1.98
2022-12-07T14:45:46.164Z,2.22
2022-12-07T14:53:57.082Z,2.00
2022-12-07T14:56:25.072Z,1.90
2022-12-07T14:58:51.973Z,1.92
2022-12-07T15:01:18.811Z,1.77
2022-12-07T15:03:45.728Z,1.70
2022-12-07T15:06:16.446Z,1.70
2022-12-07T15:08:45.330Z,2.08
2022-12-07T15:11:17.801Z,1.95
2022-12-07T15:14:03.101Z,1.80
2022-12-07T15:16:40.657Z,1.88
2022-12-07T15:19:28.003Z,1.70
2022-12-07T15:21:56.148Z,2.00
2022-12-07T15:24:24.937Z,1.75
2022-12-07T15:26:51.858Z,1.88
2022-12-07T15:29:22.884Z,1.85
2022-12-07T15:31:56.840Z,1.60
2022-12-07T15:34:31.903Z,1.70
2022-12-07T15:37:03.109Z,1.92
2022-12-07T15:39:29.919Z,1.70
2022-12-07T15:41:56.683Z,1.90
2022-12-07T15:44:42.215Z,1.95
2022-12-07T15:47:09.015Z,1.80
2022-12-07T15:49:36.195Z,1.60
2022-12-07T15:52:03.203Z,1.80
2022-12-07T15:54:31.360Z,1.60
2022-12-07T15:56:58.201Z,1.95
2022-12-07T15:59:27.145Z,1.70
2022-12-07T16:01:53.961Z,1.73
2022-12-07T16:04:21.137Z,1.80
2022-12-07T16:06:47.993Z,1.95
2022-12-07T16:09:14.783Z,1.90
2022-12-07T16:11:41.668Z,1.88
2022-12-07T16:14:08.477Z,1.70
2022-12-07T16:16:35.409Z,1.80
2022-12-07T16:19:02.297Z,2.00
2022-12-07T16:21:29.442Z,1.77
2022-12-07T16:23:59.293Z,1.70
2022-12-07T16:26:26.116Z,1.40
2022-12-07T16:28:54.404Z,1.70
2022-12-07T16:31:23.096Z,1.40
2022-12-07T16:33:51.188Z,1.60
2022-12-07T16:36:39.961Z,1.40
2022-12-07T16:39:06.869Z,1.30
2022-12-07T16:41:33.976Z,1.20
2022-12-07T16:44:06.239Z,1.27
2022-12-07T16:46:37.616Z,1.08
2022-12-07T16:49:05.256Z,1.55
2022-12-07T16:51:32.660Z,1.10
2022-12-07T16:53:59.775Z,1.40
2022-12-07T16:56:27.748Z,1.20
2022-12-07T16:58:55.626Z,1.25
2022-12-07T17:01:24.270Z,1.30
2022-12-07T17:03:51.700Z,1.70
2022-12-07T17:06:24.017Z,1.40
2022-12-07T17:08:57.445Z,1.60
2022-12-07T17:11:29.823Z,1.60
2022-12-07T17:14:15.403Z,1.30
2022-12-07T17:16:42.609Z,1.83
2022-12-07T17:19:12.763Z,1.30
2022-12-07T17:21:39.743Z,1.67
2022-12-07T17:24:10.022Z,1.33
2022-12-07T17:26:37.759Z,1.38
2022-12-07T17:29:07.189Z,1.38
2022-12-07T17:31:34.785Z,1.52
2022-12-07T17:34:02.091Z,1.42
2022-12-07T17:36:31.526Z,1.70
2022-12-07T17:38:59.333Z,1.70
2022-12-07T17:41:47.459Z,1.52
2022-12-07T17:44:16.921Z,1.65
2022-12-07T17:46:44.194Z,1.75
2022-12-07T17:49:11.396Z,2.15
2022-12-07T17:51:56.763Z,1.95
2022-12-07T17:54:24.261Z,2.38
2022-12-07T17:56:51.100Z,1.77
2022-12-07T17:59:18.168Z,1.98
2022-12-07T18:01:47.446Z,2.22
2022-12-07T18:04:14.443Z,1.92
2022-12-07T18:06:41.522Z,2.03
2022-12-07T18:09:09.087Z,1.95
2022-12-07T18:11:36.216Z,1.95
2022-12-07T18:14:04.633Z,2.03
2022-12-07T18:16:34.295Z,1.77
2022-12-07T18:19:06.553Z,1.85
2022-12-07T18:21:33.879Z,1.80
2022-12-07T18:24:02.598Z,1.75
2022-12-07T18:26:31.459Z,2.03
2022-12-07T18:29:01.810Z,2.05
2022-12-07T18:31:30.043Z,2.08
2022-12-07T18:34:01.634Z,2.00
2022-12-07T18:36:29.214Z,2.20
2022-12-07T18:38:56.062Z,2.08
2022-12-07T18:41:22.967Z,2.47
2022-12-07T18:43:50.917Z,1.90
2022-12-07T18:46:20.466Z,2.20
2022-12-07T18:48:49.379Z,1.85
2022-12-07T18:51:16.816Z,2.00
2022-12-07T18:53:43.887Z,2.03
2022-12-07T18:56:19.287Z,2.20
2022-12-07T18:59:09.536Z,2.00
2022-12-07T19:01:36.551Z,2.10
2022-12-07T19:04:03.877Z,2.17
2022-12-07T19:06:30.902Z,1.77
2022-12-07T19:08:57.864Z,2.28
2022-12-07T19:11:48.671Z,2.00
2022-12-07T19:14:19.108Z,2.25
2022-12-07T19:16:51.435Z,1.92
2022-12-07T19:19:20.461Z,1.88
2022-12-07T19:21:54.348Z,1.88
2022-12-07T19:24:23.448Z,2.05
2022-12-07T19:26:51.183Z,2.28
2022-12-07T19:29:20.270Z,1.80
2022-12-07T19:31:47.975Z,1.80
2022-12-07T19:34:17.049Z,1.90
2022-12-07T19:36:45.002Z,2.20
2022-12-07T19:39:15.240Z,2.10
2022-12-07T19:41:44.171Z,2.05
2022-12-07T19:44:23.373Z,2.08
2022-12-07T19:46:51.074Z,2.05
2022-12-07T19:49:19.262Z,1.98
2022-12-07T19:51:48.525Z,2.30
2022-12-07T19:54:16.892Z,2.08
2022-12-07T19:56:45.615Z,2.00
2022-12-07T19:59:13.904Z,2.30
2022-12-07T20:01:42.210Z,2.10
2022-12-07T20:04:16.632Z,1.88
2022-12-07T20:06:44.247Z,2.35
2022-12-07T20:09:11.085Z,2.20
2022-12-07T20:11:57.381Z,2.30
2022-12-07T20:14:24.474Z,2.13
2022-12-07T20:16:51.345Z,2.30
2022-12-07T20:19:19.154Z,2.20
2022-12-07T20:21:47.343Z,2.10
2022-12-07T20:24:17.410Z,2.28
2022-12-07T20:26:45.409Z,2.47
2022-12-07T20:29:18.408Z,2.38
2022-12-07T20:31:46.987Z,1.95
2022-12-07T20:34:14.456Z,1.90
2022-12-07T20:36:41.850Z,2.10
2022-12-07T20:39:09.026Z,2.03
2022-12-07T20:41:57.814Z,2.03
2022-12-07T20:44:24.969Z,2.58
2022-12-07T20:46:51.789Z,2.05
2022-12-07T20:49:18.645Z,2.13
2022-12-07T20:51:46.382Z,2.33
2022-12-07T20:54:16.462Z,2.35
2022-12-07T20:56:43.293Z,2.40
2022-12-07T20:59:13.944Z,2.42
2022-12-07T21:01:41.276Z,2.42
2022-12-07T21:04:08.864Z,2.63
2022-12-07T21:06:35.782Z,2.42
2022-12-07T21:09:03.035Z,2.47
2022-12-07T21:11:31.314Z,2.53
2022-12-07T21:13:58.534Z,2.92
2022-12-07T21:16:30.715Z,2.63
2022-12-07T21:19:00.097Z,2.63
2022-12-07T21:21:27.002Z,2.90
2022-12-07T21:24:01.500Z,2.70
2022-12-07T21:26:29.478Z,2.93
2022-12-07T21:28:57.239Z,3.42
2022-12-07T21:31:44.097Z,2.60
2022-12-07T21:34:11.310Z,2.90
2022-12-07T21:36:38.246Z,3.45
2022-12-07T21:39:05.447Z,3.33
2022-12-07T21:41:34.982Z,3.50
2022-12-07T21:44:04.899Z,3.30
2022-12-07T21:46:34.440Z,3.30
2022-12-07T21:49:11.188Z,3.70
2022-12-07T21:51:38.796Z,4.00
2022-12-07T21:54:06.299Z,3.72
2022-12-07T21:56:35.966Z,3.80
2022-12-07T21:59:14.370Z,3.70
2022-12-07T22:01:45.311Z,3.50
2022-12-07T22:04:17.003Z,3.22
2022-12-07T22:06:44.655Z,3.30
2022-12-07T22:09:11.867Z,3.65
2022-12-07T22:11:39.560Z,3.50
2022-12-07T22:14:25.862Z,3.30
2022-12-07T22:16:52.991Z,3.30
2022-12-07T22:19:19.837Z,3.42
2022-12-07T22:21:47.062Z,3.05
2022-12-07T22:24:14.087Z,3.45
2022-12-07T22:26:42.678Z,2.90
2022-12-07T22:29:10.428Z,2.80
2022-12-07T22:31:38.390Z,3.20
2022-12-07T22:34:05.261Z,3.10
2022-12-07T22:36:32.240Z,3.17
2022-12-07T22:39:01.121Z,3.10
2022-12-07T22:41:32.171Z,3.03
2022-12-07T22:44:00.414Z,3.65
2022-12-07T22:46:27.925Z,3.08
2022-12-07T22:48:55.231Z,2.75
2022-12-07T22:51:28.292Z,3.40
2022-12-07T22:53:55.494Z,3.33
2022-12-07T22:56:22.659Z,3.35
2022-12-07T22:58:49.542Z,3.05
2022-12-07T23:01:18.824Z,3.03
2022-12-07T23:03:46.123Z,2.90
2022-12-07T23:06:16.493Z,3.03
2022-12-07T23:08:43.694Z,3.00
2022-12-07T23:11:37.515Z,2.50
2022-12-07T23:14:09.940Z,2.47
2022-12-07T23:16:36.890Z,2.70
2022-12-07T23:19:04.332Z,2.60
2022-12-07T23:21:31.261Z,3.10
2022-12-07T23:23:58.168Z,2.88
2022-12-07T23:26:26.542Z,2.80
2022-12-07T23:28:53.768Z,2.50
2022-12-07T23:31:21.792Z,2.90
2022-12-07T23:33:48.607Z,2.58
2022-12-07T23:36:20.957Z,3.17
2022-12-07T23:38:52.279Z,2.70
2022-12-07T23:41:24.588Z,2.30
2022-12-07T23:43:51.673Z,2.70
2022-12-07T23:46:21.124Z,2.35
2022-12-07T23:48:49.633Z,2.20
2022-12-07T23:51:17.227Z,2.28
2022-12-07T23:53:46.900Z,2.63
2022-12-07T23:56:16.062Z,2.38
2022-12-07T23:58:43.496Z,2.25
